RORA(METAR)
06/24 13:00
RORA 240400Z 06011KT 9999 SCT008 BKN010 25/23 Q1009 RMK A2981=
戻る
トップページへ戻る
IMOC Co,.Ltd.